createdAt,value
2017-06-12T00:02:10.787Z,82.40
2017-06-12T00:04:38.040Z,83.10
2017-06-12T00:07:05.231Z,83.40
2017-06-12T00:09:32.510Z,82.50
2017-06-12T00:11:59.821Z,84.10
2017-06-12T00:14:26.975Z,86.50
2017-06-12T00:16:54.227Z,87.20
2017-06-12T00:19:21.433Z,87.40
2017-06-12T00:21:48.683Z,89.50
2017-06-12T00:24:16.036Z,90.10
2017-06-12T00:26:43.247Z,90.40
2017-06-12T00:29:10.507Z,90.70
2017-06-12T00:31:37.761Z,90.40
2017-06-12T00:34:04.964Z,91.20
2017-06-12T00:36:32.234Z,92.00
2017-06-12T00:38:59.439Z,91.50
2017-06-12T00:41:26.590Z,90.90
2017-06-12T00:43:53.783Z,90.50
2017-06-12T00:46:21.101Z,90.80
2017-06-12T00:48:48.309Z,91.70
2017-06-12T00:51:15.487Z,91.70
2017-06-12T00:53:42.896Z,91.90
2017-06-12T00:56:10.020Z,92.40
2017-06-12T00:58:37.199Z,92.20
2017-06-12T01:01:04.426Z,92.00
2017-06-12T01:03:31.694Z,92.00
2017-06-12T01:05:58.901Z,92.00
2017-06-12T01:08:26.063Z,92.00
2017-06-12T01:10:53.257Z,92.10
2017-06-12T01:13:20.507Z,92.10
2017-06-12T01:15:47.647Z,92.10
2017-06-12T01:18:14.796Z,92.10
2017-06-12T01:20:41.983Z,92.00
2017-06-12T01:23:09.192Z,92.00
2017-06-12T01:25:36.443Z,92.00
2017-06-12T01:28:03.702Z,92.00
2017-06-12T01:30:30.927Z,92.00
2017-06-12T01:32:58.198Z,92.00
2017-06-12T01:35:25.360Z,92.10
2017-06-12T01:37:52.618Z,92.00
2017-06-12T01:40:19.807Z,92.20
2017-06-12T01:42:47.007Z,92.70
2017-06-12T01:45:14.223Z,92.30
2017-06-12T01:47:41.377Z,92.10
2017-06-12T01:50:08.616Z,92.20
2017-06-12T01:52:35.810Z,92.30
2017-06-12T01:55:02.982Z,92.50
2017-06-12T01:57:30.359Z,92.70
2017-06-12T01:59:57.577Z,92.80
2017-06-12T02:02:24.792Z,93.00
2017-06-12T02:04:52.105Z,93.40
2017-06-12T02:07:19.295Z,93.60
2017-06-12T02:09:46.520Z,94.20
2017-06-12T02:12:13.951Z,94.40
2017-06-12T02:14:41.153Z,94.70
2017-06-12T02:17:08.418Z,95.00
2017-06-12T02:19:35.591Z,95.60
2017-06-12T02:22:02.819Z,95.20
2017-06-12T02:24:30.016Z,95.10
2017-06-12T02:26:57.221Z,95.10
2017-06-12T02:29:24.444Z,95.00
2017-06-12T02:31:51.728Z,95.00
2017-06-12T02:34:18.964Z,95.10
2017-06-12T02:36:46.244Z,95.30
2017-06-12T02:39:13.435Z,95.30
2017-06-12T02:41:40.656Z,95.50
2017-06-12T02:44:07.808Z,95.60
2017-06-12T02:46:35.031Z,95.80
2017-06-12T02:49:02.278Z,95.90
2017-06-12T02:51:29.515Z,96.20
2017-06-12T02:53:56.696Z,96.20
2017-06-12T02:56:23.907Z,96.40
2017-06-12T02:58:51.091Z,96.70
2017-06-12T03:01:18.388Z,96.90
2017-06-12T03:03:45.563Z,97.20
2017-06-12T03:06:12.709Z,97.40
2017-06-12T03:08:39.957Z,98.10
2017-06-12T03:11:07.133Z,98.70
2017-06-12T03:13:34.338Z,99.50
2017-06-12T03:16:01.636Z,99.90
2017-06-12T03:18:28.824Z,99.90
2017-06-12T03:20:55.989Z,99.90
2017-06-12T03:23:23.222Z,99.90
2017-06-12T03:25:50.488Z,99.90
2017-06-12T03:28:17.695Z,99.90
2017-06-12T03:30:44.953Z,99.80
2017-06-12T03:33:12.152Z,99.80
2017-06-12T03:35:39.448Z,99.90
2017-06-12T03:38:06.678Z,99.90
2017-06-12T03:40:33.922Z,99.90
2017-06-12T03:43:01.123Z,99.90
2017-06-12T03:45:28.471Z,99.90
2017-06-12T03:47:55.639Z,99.90
2017-06-12T03:50:22.840Z,99.90
2017-06-12T03:52:50.020Z,99.90
2017-06-12T03:55:17.268Z,99.90
2017-06-12T03:57:44.464Z,99.90
2017-06-12T04:00:11.819Z,99.90
2017-06-12T04:02:39.027Z,99.90
2017-06-12T04:05:06.297Z,99.90
2017-06-12T04:07:33.567Z,99.90
2017-06-12T04:10:00.796Z,99.90
2017-06-12T04:12:28.032Z,99.90
2017-06-12T04:14:58.867Z,99.90
2017-06-12T04:17:26.071Z,99.90
2017-06-12T04:19:53.297Z,99.60
2017-06-12T04:22:20.544Z,99.30
2017-06-12T04:24:47.787Z,99.00
2017-06-12T04:27:14.931Z,99.10
2017-06-12T04:29:42.208Z,99.00
2017-06-12T04:32:09.387Z,98.70
2017-06-12T04:34:36.578Z,98.20
2017-06-12T04:37:03.764Z,97.70
2017-06-12T04:39:30.929Z,97.10
2017-06-12T04:41:58.371Z,96.80
2017-06-12T04:44:25.629Z,96.50
2017-06-12T04:46:52.810Z,96.50
2017-06-12T04:49:20.035Z,96.50
2017-06-12T04:51:47.271Z,96.50
2017-06-12T04:54:14.482Z,96.50
2017-06-12T04:56:41.714Z,96.60
2017-06-12T04:59:08.945Z,96.40
2017-06-12T05:01:36.218Z,97.20
2017-06-12T05:04:03.411Z,96.60
2017-06-12T05:06:30.680Z,96.60
2017-06-12T05:08:57.975Z,96.50
2017-06-12T05:11:25.232Z,96.40
2017-06-12T05:13:52.428Z,96.30
2017-06-12T05:16:19.749Z,96.20
2017-06-12T05:18:47.015Z,96.00
2017-06-12T05:21:14.230Z,96.10
2017-06-12T05:23:41.466Z,95.90
2017-06-12T05:26:08.835Z,95.90
2017-06-12T05:28:36.049Z,95.80
2017-06-12T05:31:03.443Z,95.90
2017-06-12T05:33:30.663Z,95.60
2017-06-12T05:35:57.982Z,95.70
2017-06-12T05:38:25.179Z,95.90
2017-06-12T05:40:52.412Z,96.10
2017-06-12T05:43:19.706Z,96.30
2017-06-12T05:45:46.932Z,96.30
2017-06-12T05:48:14.100Z,96.10
2017-06-12T05:50:41.255Z,96.10
2017-06-12T05:53:08.520Z,95.50
2017-06-12T05:55:35.727Z,95.30
2017-06-12T05:58:02.899Z,95.10
2017-06-12T06:00:30.180Z,94.60
2017-06-12T06:02:58.321Z,94.40
2017-06-12T06:05:25.539Z,94.50
2017-06-12T06:07:52.767Z,94.60
2017-06-12T06:10:19.998Z,94.50
2017-06-12T06:12:47.245Z,94.50
2017-06-12T06:15:14.408Z,94.50
2017-06-12T06:17:41.576Z,93.80
2017-06-12T06:20:08.806Z,93.10
2017-06-12T06:22:36.095Z,92.90
2017-06-12T06:25:03.264Z,91.90
2017-06-12T06:27:30.460Z,92.30
2017-06-12T06:29:57.652Z,91.90
2017-06-12T06:32:24.851Z,91.20
2017-06-12T06:34:52.101Z,90.90
2017-06-12T06:37:19.334Z,90.70
2017-06-12T06:39:47.523Z,89.40
2017-06-12T06:42:14.746Z,89.00
2017-06-12T06:44:41.951Z,86.40
2017-06-12T06:47:09.160Z,82.40
2017-06-12T06:49:36.371Z,81.20
2017-06-12T06:52:03.672Z,81.20
2017-06-12T06:54:30.927Z,82.30
2017-06-12T06:56:58.182Z,82.30
2017-06-12T06:59:25.384Z,82.30
2017-06-12T07:01:52.583Z,83.00
2017-06-12T07:04:19.781Z,83.60
2017-06-12T07:06:46.928Z,83.60
2017-06-12T07:09:14.119Z,83.10
2017-06-12T07:11:41.288Z,83.30
2017-06-12T07:14:08.518Z,83.60
2017-06-12T07:16:35.732Z,83.30
2017-06-12T07:19:02.908Z,84.30
2017-06-12T07:21:29.395Z,83.50
2017-06-12T07:23:56.068Z,83.90
2017-06-12T07:26:22.580Z,82.60
2017-06-12T07:28:49.007Z,83.00
2017-06-12T07:31:16.261Z,76.30
2017-06-12T07:33:43.482Z,71.50
2017-06-12T07:36:10.715Z,67.10
2017-06-12T07:38:37.989Z,67.60
2017-06-12T07:41:05.191Z,65.30
2017-06-12T07:43:32.475Z,63.90
2017-06-12T07:45:59.769Z,60.00
2017-06-12T07:48:26.963Z,58.00
2017-06-12T07:50:54.225Z,57.20
2017-06-12T07:53:21.424Z,56.10
2017-06-12T07:55:48.646Z,58.90
2017-06-12T07:58:16.012Z,64.90
2017-06-12T08:00:42.507Z,64.80
2017-06-12T08:03:09.687Z,67.20
2017-06-12T08:05:36.999Z,70.00
2017-06-12T08:08:04.271Z,71.90
2017-06-12T08:10:31.510Z,72.80
2017-06-12T08:12:58.751Z,71.70
2017-06-12T08:15:26.074Z,69.50
2017-06-12T08:17:53.332Z,68.40
2017-06-12T08:20:20.520Z,70.40
2017-06-12T08:22:47.792Z,71.00
2017-06-12T08:25:14.412Z,71.00
2017-06-12T08:27:41.611Z,73.80
2017-06-12T08:30:08.888Z,69.70
2017-06-12T08:32:36.143Z,65.50
2017-06-12T08:35:03.396Z,60.20
2017-06-12T08:37:29.869Z,60.20
2017-06-12T08:39:57.108Z,61.80
2017-06-12T08:42:24.374Z,60.70
2017-06-12T08:44:51.632Z,58.00
2017-06-12T08:47:18.826Z,57.10
2017-06-12T08:49:46.267Z,55.90
2017-06-12T08:52:13.583Z,56.90
2017-06-12T08:54:40.876Z,57.00
2017-06-12T08:57:08.087Z,58.10
2017-06-12T08:59:35.293Z,60.90
2017-06-12T09:02:02.696Z,63.60
2017-06-12T09:04:29.964Z,64.50
2017-06-12T09:06:57.191Z,66.00
2017-06-12T09:09:24.464Z,66.60
2017-06-12T09:11:51.735Z,66.20
2017-06-12T09:14:19.066Z,64.00
2017-06-12T09:16:46.390Z,63.80
2017-06-12T09:19:13.625Z,62.20
2017-06-12T09:21:40.905Z,60.80
2017-06-12T09:24:08.108Z,59.10
2017-06-12T09:26:34.636Z,59.10
2017-06-12T09:29:16.711Z,55.10
2017-06-12T09:31:44.048Z,56.40
2017-06-12T09:34:11.271Z,58.60
2017-06-12T09:36:38.552Z,59.70
2017-06-12T09:39:05.908Z,60.60
2017-06-12T09:41:33.158Z,60.60
2017-06-12T09:44:00.499Z,60.30
2017-06-12T09:46:27.682Z,62.50
2017-06-12T09:48:54.227Z,62.50
2017-06-12T09:51:21.566Z,64.00
2017-06-12T09:53:48.987Z,64.80
2017-06-12T09:56:16.300Z,65.00
2017-06-12T09:58:43.546Z,64.80
2017-06-12T10:01:10.918Z,65.90
2017-06-12T10:03:38.300Z,66.40
2017-06-12T10:06:04.778Z,65.40
2017-06-12T10:08:32.062Z,66.70
2017-06-12T10:10:59.385Z,68.00
2017-06-12T10:13:27.110Z,68.50
2017-06-12T10:15:54.802Z,69.50
2017-06-12T10:18:21.510Z,69.50
2017-06-12T10:20:48.832Z,69.40
2017-06-12T10:23:16.175Z,69.50
2017-06-12T10:25:43.423Z,70.60
2017-06-12T10:28:10.687Z,72.40
2017-06-12T10:30:37.989Z,74.20
2017-06-12T10:33:07.878Z,74.20
2017-06-12T10:35:34.680Z,75.00
2017-06-12T10:38:01.982Z,76.90
2017-06-12T10:40:29.239Z,79.00
2017-06-12T10:42:56.518Z,80.10
2017-06-12T10:45:23.792Z,80.40
2017-06-12T10:47:51.220Z,80.00
2017-06-12T10:50:18.562Z,81.40
2017-06-12T10:52:45.811Z,79.00
2017-06-12T10:55:13.052Z,79.10
2017-06-12T10:57:40.328Z,79.00
2017-06-12T11:00:07.654Z,76.90
2017-06-12T11:02:34.907Z,75.60
2017-06-12T11:05:01.487Z,75.40
2017-06-12T11:07:28.864Z,73.10
2017-06-12T11:09:55.367Z,73.10
2017-06-12T11:12:21.993Z,74.10
2017-06-12T11:14:49.264Z,75.90
2017-06-12T11:17:15.815Z,76.80
2017-06-12T11:19:43.083Z,78.50
2017-06-12T11:22:10.384Z,78.80
2017-06-12T11:24:39.663Z,79.90
2017-06-12T11:27:06.943Z,81.20
2017-06-12T11:29:38.023Z,80.50
2017-06-12T11:32:06.420Z,79.70
2017-06-12T11:34:33.817Z,78.10
2017-06-12T11:37:00.444Z,78.10
2017-06-12T11:39:27.768Z,70.50
2017-06-12T11:41:55.147Z,66.70
2017-06-12T11:44:22.570Z,66.90
2017-06-12T11:46:49.251Z,66.80
2017-06-12T11:49:16.661Z,66.10
2017-06-12T11:51:43.879Z,68.60
2017-06-12T11:54:11.129Z,69.20
2017-06-12T11:56:38.463Z,68.20
2017-06-12T11:59:05.678Z,68.10
2017-06-12T12:01:32.930Z,66.30
2017-06-12T12:04:00.270Z,63.40
2017-06-12T12:06:26.904Z,63.30
2017-06-12T12:08:54.345Z,58.80
2017-06-12T12:11:20.910Z,58.80
2017-06-12T12:13:48.201Z,63.40
2017-06-12T12:16:15.525Z,65.50
2017-06-12T12:18:43.771Z,64.50
2017-06-12T12:21:11.072Z,64.30
2017-06-12T12:23:38.528Z,64.40
2017-06-12T12:26:05.054Z,64.40
2017-06-12T12:28:32.456Z,65.70
2017-06-12T12:30:59.777Z,62.70
2017-06-12T12:33:27.028Z,64.60
2017-06-12T12:35:54.503Z,64.50
2017-06-12T12:38:21.066Z,64.50
2017-06-12T12:40:48.367Z,67.00
2017-06-12T12:43:15.774Z,67.00
2017-06-12T12:45:43.048Z,63.60
2017-06-12T12:48:10.463Z,61.70
2017-06-12T12:50:37.781Z,58.80
2017-06-12T12:53:04.972Z,57.00
2017-06-12T12:55:32.358Z,56.10
2017-06-12T12:57:59.621Z,54.40
2017-06-12T13:00:26.962Z,53.20
2017-06-12T13:02:54.345Z,51.70
2017-06-12T13:05:21.627Z,50.60
2017-06-12T13:07:48.887Z,53.10
2017-06-12T13:10:16.214Z,54.20
2017-06-12T13:12:43.616Z,52.20
2017-06-12T13:15:11.019Z,55.00
2017-06-12T13:17:37.579Z,55.00
2017-06-12T13:20:04.807Z,54.90
2017-06-12T13:22:32.191Z,50.90
2017-06-12T13:24:59.482Z,46.90
2017-06-12T13:27:26.787Z,46.60
2017-06-12T13:29:54.156Z,45.90
2017-06-12T13:32:21.402Z,45.40
2017-06-12T13:34:47.991Z,45.40
2017-06-12T13:37:15.271Z,45.60
2017-06-12T13:39:42.753Z,43.80
2017-06-12T13:42:09.335Z,43.80
2017-06-12T13:44:36.653Z,43.00
2017-06-12T13:47:04.053Z,42.70
2017-06-12T13:49:31.259Z,43.70
2017-06-12T13:51:58.531Z,42.50
2017-06-12T13:54:25.844Z,41.60
2017-06-12T13:56:53.113Z,42.60
2017-06-12T13:59:20.504Z,44.20
2017-06-12T14:01:47.200Z,44.20
2017-06-12T14:04:14.550Z,40.80
2017-06-12T14:06:41.833Z,40.10
2017-06-12T14:09:08.402Z,40.10
2017-06-12T14:11:35.663Z,39.60
2017-06-12T14:14:02.990Z,38.10
2017-06-12T14:16:30.304Z,37.90
2017-06-12T14:18:57.501Z,39.80
2017-06-12T14:21:24.753Z,39.40
2017-06-12T14:23:52.085Z,37.70
2017-06-12T14:26:34.189Z,36.50
2017-06-12T14:29:00.717Z,36.50
2017-06-12T14:32:02.063Z,35.40
2017-06-12T14:34:28.630Z,34.00
2017-06-12T14:36:55.160Z,34.10
2017-06-12T14:39:21.667Z,35.10
2017-06-12T14:41:48.213Z,34.60
2017-06-12T14:44:14.743Z,36.30
2017-06-12T14:46:41.236Z,34.80
2017-06-12T14:49:07.761Z,34.10
2017-06-12T14:51:34.696Z,33.10
2017-06-12T14:54:01.289Z,32.50
2017-06-12T14:56:27.788Z,32.90
2017-06-12T14:58:54.476Z,33.30
2017-06-12T15:01:20.998Z,32.00
2017-06-12T15:03:47.484Z,31.60
2017-06-12T15:06:14.037Z,32.30
2017-06-12T15:08:40.580Z,31.70
2017-06-12T15:11:07.113Z,31.40
2017-06-12T15:13:33.708Z,31.70
2017-06-12T15:16:00.510Z,31.50
2017-06-12T15:18:27.015Z,32.20
2017-06-12T15:20:53.485Z,30.50
2017-06-12T15:23:20.128Z,29.90
2017-06-12T15:25:46.699Z,30.00
2017-06-12T15:28:13.253Z,30.60
2017-06-12T15:30:39.946Z,31.40
2017-06-12T15:33:06.529Z,31.50
2017-06-12T15:35:33.054Z,32.40
2017-06-12T15:37:59.572Z,32.20
2017-06-12T15:40:26.185Z,31.80
2017-06-12T15:42:52.662Z,33.40
2017-06-12T15:45:19.207Z,34.00
2017-06-12T15:47:45.850Z,34.60
2017-06-12T15:50:12.404Z,35.00
2017-06-12T15:52:41.176Z,35.70
2017-06-12T15:55:07.824Z,36.70
2017-06-12T15:57:34.332Z,36.10
2017-06-12T16:00:01.560Z,35.10
2017-06-12T16:02:28.097Z,35.10
2017-06-12T16:04:54.792Z,36.50
2017-06-12T16:07:36.373Z,37.30
2017-06-12T16:10:03.091Z,38.10
2017-06-12T16:12:29.618Z,38.40
2017-06-12T16:14:56.210Z,38.50
2017-06-12T16:17:22.776Z,39.80
2017-06-12T16:19:50.181Z,41.80
2017-06-12T16:22:17.356Z,41.80
2017-06-12T16:24:44.039Z,41.40
2017-06-12T16:27:10.660Z,41.50
2017-06-12T16:29:38.849Z,41.70
2017-06-12T16:32:05.345Z,41.70
2017-06-12T16:34:31.949Z,40.10
2017-06-12T16:36:58.414Z,39.30
2017-06-12T16:39:24.917Z,40.30
2017-06-12T16:41:51.466Z,39.30
2017-06-12T16:44:17.945Z,40.60
2017-06-12T16:46:44.500Z,40.90
2017-06-12T16:49:11.045Z,39.40
2017-06-12T16:51:37.610Z,41.40
2017-06-12T16:54:04.154Z,41.50
2017-06-12T16:56:30.570Z,41.20
2017-06-12T16:58:57.057Z,40.50
2017-06-12T17:01:23.511Z,41.50
2017-06-12T17:03:50.037Z,42.70
2017-06-12T17:06:16.682Z,42.90
2017-06-12T17:08:43.144Z,43.60
2017-06-12T17:11:09.685Z,44.20
2017-06-12T17:13:36.409Z,44.60
2017-06-12T17:16:02.841Z,45.20
2017-06-12T17:18:29.342Z,45.20
2017-06-12T17:20:55.880Z,46.10
2017-06-12T17:23:22.612Z,46.30
2017-06-12T17:25:49.074Z,47.40
2017-06-12T17:28:15.685Z,47.10
2017-06-12T17:30:42.202Z,46.70
2017-06-12T17:33:08.813Z,47.20
2017-06-12T17:35:35.266Z,47.00
2017-06-12T17:38:01.762Z,47.30
2017-06-12T17:40:28.326Z,48.00
2017-06-12T17:42:54.818Z,48.10
2017-06-12T17:45:21.293Z,48.20
2017-06-12T17:47:47.856Z,49.10
2017-06-12T17:50:14.502Z,48.30
2017-06-12T17:52:41.654Z,47.70
2017-06-12T17:55:08.229Z,47.90
2017-06-12T17:57:35.065Z,47.60
2017-06-12T18:00:01.906Z,47.20
2017-06-12T18:02:28.365Z,47.10
2017-06-12T18:04:55.206Z,47.30
2017-06-12T18:07:21.852Z,48.00
2017-06-12T18:09:48.345Z,46.90
2017-06-12T18:12:14.876Z,47.80
2017-06-12T18:14:41.414Z,47.60
2017-06-12T18:17:07.941Z,48.00
2017-06-12T18:19:34.476Z,48.00
2017-06-12T18:22:01.029Z,48.00
2017-06-12T18:24:27.565Z,48.70
2017-06-12T18:26:54.085Z,48.60
2017-06-12T18:29:21.352Z,48.80
2017-06-12T18:31:48.054Z,48.90
2017-06-12T18:34:14.656Z,49.10
2017-06-12T18:36:41.231Z,48.90
2017-06-12T18:39:07.738Z,48.80
2017-06-12T18:41:34.635Z,49.20
2017-06-12T18:44:01.543Z,49.50
2017-06-12T18:46:28.104Z,49.40
2017-06-12T18:48:54.757Z,49.60
2017-06-12T18:51:21.304Z,49.70
2017-06-12T18:53:47.970Z,50.50
2017-06-12T18:56:14.588Z,50.70
2017-06-12T18:58:41.127Z,51.00
2017-06-12T19:01:07.674Z,51.60
2017-06-12T19:03:34.219Z,51.60
2017-06-12T19:06:00.869Z,52.20
2017-06-12T19:08:27.396Z,52.90
2017-06-12T19:10:54.145Z,53.00
2017-06-12T19:13:20.705Z,53.80
2017-06-12T19:15:47.203Z,53.90
2017-06-12T19:18:13.778Z,53.90
2017-06-12T19:20:40.406Z,53.70
2017-06-12T19:23:06.965Z,54.00
2017-06-12T19:25:33.505Z,53.60
2017-06-12T19:28:00.033Z,53.50
2017-06-12T19:30:26.699Z,53.40
2017-06-12T19:32:53.344Z,53.10
2017-06-12T19:35:19.854Z,53.10
2017-06-12T19:37:46.522Z,53.20
2017-06-12T19:40:13.120Z,53.20
2017-06-12T19:42:39.709Z,53.10
2017-06-12T19:45:06.327Z,53.20
2017-06-12T19:47:32.884Z,53.10
2017-06-12T19:49:59.436Z,53.10
2017-06-12T19:52:25.996Z,53.00
2017-06-12T19:54:52.537Z,52.80
2017-06-12T19:57:19.096Z,53.00
2017-06-12T19:59:45.636Z,53.10
2017-06-12T20:02:12.263Z,53.40
2017-06-12T20:04:38.887Z,53.50
2017-06-12T20:07:05.395Z,53.40
2017-06-12T20:09:31.918Z,53.50
2017-06-12T20:11:58.563Z,53.40
2017-06-12T20:14:25.093Z,54.70
2017-06-12T20:16:51.588Z,56.50
2017-06-12T20:19:18.830Z,57.70
2017-06-12T20:21:45.331Z,58.80
2017-06-12T20:24:11.893Z,59.00
2017-06-12T20:26:38.513Z,59.70
2017-06-12T20:29:05.138Z,60.60
2017-06-12T20:31:31.737Z,61.80
2017-06-12T20:33:58.400Z,63.10
2017-06-12T20:36:24.868Z,64.00
2017-06-12T20:38:51.389Z,64.60
2017-06-12T20:41:17.947Z,65.20
2017-06-12T20:43:44.601Z,66.20
2017-06-12T20:46:11.131Z,66.70
2017-06-12T20:48:37.704Z,67.10
2017-06-12T20:51:04.376Z,68.30
2017-06-12T20:53:30.943Z,68.50
2017-06-12T20:55:57.506Z,68.80
2017-06-12T20:58:24.015Z,69.70
2017-06-12T21:00:50.797Z,70.20
2017-06-12T21:03:17.299Z,70.90
2017-06-12T21:05:43.839Z,70.70
2017-06-12T21:08:10.407Z,70.90
2017-06-12T21:10:37.148Z,71.30
2017-06-12T21:13:03.706Z,72.20
2017-06-12T21:15:33.237Z,72.80
2017-06-12T21:17:59.754Z,72.40
2017-06-12T21:20:26.376Z,73.10
2017-06-12T21:22:52.969Z,74.10
2017-06-12T21:25:19.563Z,73.50
2017-06-12T21:27:46.190Z,73.10
2017-06-12T21:30:12.766Z,74.50
2017-06-12T21:32:39.271Z,72.60
2017-06-12T21:35:05.839Z,72.50
2017-06-12T21:37:32.412Z,73.60
2017-06-12T21:39:58.881Z,73.70
2017-06-12T21:42:25.581Z,74.50
2017-06-12T21:44:52.080Z,75.00
2017-06-12T21:47:18.651Z,74.80
2017-06-12T21:49:45.182Z,74.70
2017-06-12T21:52:11.658Z,75.10
2017-06-12T21:54:38.895Z,76.20
2017-06-12T21:57:05.726Z,76.20
2017-06-12T21:59:32.343Z,76.60
2017-06-12T22:01:58.924Z,77.10
2017-06-12T22:04:26.357Z,78.60
2017-06-12T22:06:52.911Z,78.40
2017-06-12T22:09:20.117Z,78.70
2017-06-12T22:11:46.751Z,78.00
2017-06-12T22:14:13.255Z,78.20
2017-06-12T22:16:39.919Z,78.10
2017-06-12T22:19:06.359Z,78.20
2017-06-12T22:21:32.883Z,78.30
2017-06-12T22:23:59.397Z,78.90
2017-06-12T22:26:25.916Z,79.20
2017-06-12T22:28:52.453Z,79.60
2017-06-12T22:31:18.929Z,79.40
2017-06-12T22:33:45.470Z,79.30
2017-06-12T22:36:12.022Z,80.70
2017-06-12T22:38:38.567Z,81.70
2017-06-12T22:41:05.205Z,82.20
2017-06-12T22:43:31.732Z,82.70
2017-06-12T22:45:58.204Z,83.30
2017-06-12T22:48:24.726Z,83.30
2017-06-12T22:50:51.954Z,83.30
2017-06-12T22:53:18.387Z,83.20
2017-06-12T22:55:44.873Z,83.50
2017-06-12T22:58:11.334Z,83.80
2017-06-12T23:00:37.818Z,84.50
2017-06-12T23:03:05.015Z,85.20
2017-06-12T23:05:31.512Z,85.20
2017-06-12T23:07:57.994Z,86.10
2017-06-12T23:10:24.498Z,87.70
2017-06-12T23:12:50.960Z,89.20
2017-06-12T23:15:17.427Z,89.60
2017-06-12T23:17:44.696Z,89.70
2017-06-12T23:20:11.124Z,89.70
2017-06-12T23:22:37.624Z,89.30
2017-06-12T23:25:04.073Z,89.80
2017-06-12T23:27:45.438Z,90.20
2017-06-12T23:30:11.881Z,90.60
2017-06-12T23:32:38.507Z,91.10
2017-06-12T23:35:05.010Z,91.30
2017-06-12T23:37:31.470Z,91.40
2017-06-12T23:39:57.930Z,91.50
2017-06-12T23:42:25.136Z,91.60
2017-06-12T23:44:51.556Z,91.50
2017-06-12T23:47:17.992Z,90.90
2017-06-12T23:49:44.519Z,91.10
2017-06-12T23:52:10.971Z,91.40
2017-06-12T23:54:37.410Z,91.60
2017-06-12T23:57:03.911Z,92.20
2017-06-12T23:59:30.363Z,92.50
